createdAt,value
2017-11-14T00:02:19.131Z,4.70
2017-11-14T00:04:46.789Z,4.60
2017-11-14T00:07:15.296Z,4.70
2017-11-14T00:09:43.141Z,4.70
2017-11-14T00:12:10.815Z,4.60
2017-11-14T00:14:38.508Z,4.60
2017-11-14T00:17:07.892Z,4.60
2017-11-14T00:19:36.390Z,4.50
2017-11-14T00:22:04.429Z,4.50
2017-11-14T00:24:33.038Z,4.50
2017-11-14T00:27:01.585Z,4.50
2017-11-14T00:29:29.310Z,4.50
2017-11-14T00:31:56.955Z,4.40
2017-11-14T00:34:24.612Z,4.50
2017-11-14T00:36:52.347Z,4.50
2017-11-14T00:39:20.026Z,4.40
2017-11-14T00:41:48.526Z,4.20
2017-11-14T00:44:16.318Z,4.20
2017-11-14T00:46:44.076Z,4.30
2017-11-14T00:49:12.764Z,4.30
2017-11-14T00:51:40.382Z,4.30
2017-11-14T00:54:08.037Z,4.30
2017-11-14T00:56:35.709Z,4.40
2017-11-14T00:59:03.342Z,4.50
2017-11-14T01:01:31.043Z,4.50
2017-11-14T01:03:58.672Z,4.50
2017-11-14T01:06:26.240Z,4.60
2017-11-14T01:08:55.262Z,4.60
2017-11-14T01:11:23.223Z,4.60
2017-11-14T01:13:51.616Z,4.70
2017-11-14T01:16:20.037Z,4.80
2017-11-14T01:18:47.771Z,4.80
2017-11-14T01:21:15.543Z,4.90
2017-11-14T01:23:43.217Z,5.00
2017-11-14T01:26:10.844Z,4.90
2017-11-14T01:28:38.554Z,5.10
2017-11-14T01:31:06.262Z,5.10
2017-11-14T01:33:33.990Z,5.10
2017-11-14T01:36:01.610Z,5.10
2017-11-14T01:38:29.347Z,5.00
2017-11-14T01:40:56.963Z,5.00
2017-11-14T01:43:25.976Z,5.00
2017-11-14T01:45:53.703Z,4.90
2017-11-14T01:48:21.466Z,4.90
2017-11-14T01:50:49.172Z,4.90
2017-11-14T01:53:17.114Z,4.70
2017-11-14T01:55:44.875Z,4.60
2017-11-14T01:58:12.527Z,4.40
2017-11-14T02:00:48.959Z,4.50
2017-11-14T02:03:16.843Z,4.50
2017-11-14T02:05:44.539Z,4.40
2017-11-14T02:08:13.021Z,4.30
2017-11-14T02:10:40.858Z,4.20
2017-11-14T02:13:10.081Z,4.20
2017-11-14T02:15:37.749Z,4.10
2017-11-14T02:18:06.204Z,4.10
2017-11-14T02:20:34.715Z,4.10
2017-11-14T02:23:02.380Z,4.10
2017-11-14T02:25:30.104Z,4.10
2017-11-14T02:27:57.791Z,4.00
2017-11-14T02:30:25.593Z,3.90
2017-11-14T02:32:53.277Z,4.00
2017-11-14T02:35:20.996Z,4.10
2017-11-14T02:37:48.687Z,4.00
2017-11-14T02:40:17.862Z,4.00
2017-11-14T02:42:45.776Z,4.10
2017-11-14T02:45:14.475Z,4.30
2017-11-14T02:47:42.330Z,4.20
2017-11-14T02:50:10.096Z,4.30
2017-11-14T02:52:38.062Z,4.40
2017-11-14T02:55:07.465Z,4.40
2017-11-14T02:57:35.131Z,4.40
2017-11-14T03:00:02.847Z,4.30
2017-11-14T03:02:31.476Z,4.30
2017-11-14T03:04:59.253Z,4.30
2017-11-14T03:07:27.267Z,4.30
2017-11-14T03:09:54.987Z,4.30
2017-11-14T03:12:22.749Z,4.30
2017-11-14T03:14:50.618Z,4.30
2017-11-14T03:17:18.342Z,4.40
2017-11-14T03:19:46.036Z,4.30
2017-11-14T03:22:14.015Z,4.30
2017-11-14T03:24:41.675Z,4.30
2017-11-14T03:27:10.262Z,4.30
2017-11-14T03:29:39.411Z,4.40
2017-11-14T03:32:07.784Z,4.40
2017-11-14T03:34:35.391Z,4.50
2017-11-14T03:37:03.338Z,4.50
2017-11-14T03:39:30.997Z,4.50
2017-11-14T03:41:58.809Z,4.50
2017-11-14T03:44:27.012Z,4.60
2017-11-14T03:46:54.647Z,4.60
2017-11-14T03:49:22.293Z,4.60
2017-11-14T03:51:49.951Z,4.60
2017-11-14T03:54:18.611Z,4.40
2017-11-14T03:56:47.139Z,4.30
2017-11-14T03:59:14.864Z,4.30
2017-11-14T04:01:42.554Z,4.40
2017-11-14T04:04:10.189Z,4.40
2017-11-14T04:06:37.911Z,4.40
2017-11-14T04:09:06.429Z,4.40
2017-11-14T04:11:34.827Z,4.30
2017-11-14T04:14:03.383Z,4.20
2017-11-14T04:16:31.905Z,4.20
2017-11-14T04:18:59.590Z,4.20
2017-11-14T04:21:27.232Z,4.20
2017-11-14T04:23:54.985Z,4.20
2017-11-14T04:26:23.486Z,4.20
2017-11-14T04:28:52.058Z,4.10
2017-11-14T04:31:20.751Z,4.10
2017-11-14T04:33:48.427Z,4.00
2017-11-14T04:36:16.131Z,4.00
2017-11-14T04:38:43.906Z,3.90
2017-11-14T04:41:11.528Z,3.80
2017-11-14T04:43:40.066Z,3.60
2017-11-14T04:46:08.180Z,3.60
2017-11-14T04:48:36.720Z,3.60
2017-11-14T04:51:05.070Z,3.60
2017-11-14T04:53:32.727Z,3.50
2017-11-14T04:56:00.438Z,3.60
2017-11-14T04:58:28.661Z,3.50
2017-11-14T05:00:56.272Z,3.50
2017-11-14T05:03:24.271Z,3.40
2017-11-14T05:05:51.872Z,3.40
2017-11-14T05:08:19.504Z,3.40
2017-11-14T05:10:47.196Z,3.40
2017-11-14T05:13:15.455Z,3.40
2017-11-14T05:15:43.144Z,3.40
2017-11-14T05:18:10.871Z,3.40
2017-11-14T05:20:38.593Z,3.30
2017-11-14T05:23:06.329Z,3.30
2017-11-14T05:25:36.536Z,3.40
2017-11-14T05:28:04.317Z,3.40
2017-11-14T05:30:31.978Z,3.30
2017-11-14T05:33:00.003Z,3.30
2017-11-14T05:35:28.474Z,3.30
2017-11-14T05:37:56.094Z,3.30
2017-11-14T05:40:23.752Z,3.20
2017-11-14T05:42:51.340Z,3.20
2017-11-14T05:45:18.950Z,3.10
2017-11-14T05:47:47.839Z,3.10
2017-11-14T05:50:15.554Z,3.10
2017-11-14T05:52:43.590Z,3.20
2017-11-14T05:55:11.227Z,3.30
2017-11-14T05:57:39.349Z,3.30
2017-11-14T06:00:08.193Z,3.30
2017-11-14T06:02:36.675Z,3.30
2017-11-14T06:05:04.390Z,3.30
2017-11-14T06:07:34.130Z,3.40
2017-11-14T06:10:01.786Z,3.50
2017-11-14T06:12:29.452Z,3.40
2017-11-14T06:14:57.141Z,3.50
2017-11-14T06:17:24.889Z,3.50
2017-11-14T06:19:54.262Z,3.50
2017-11-14T06:22:22.035Z,3.60
2017-11-14T06:24:49.762Z,3.60
2017-11-14T06:27:17.372Z,3.70
2017-11-14T06:29:45.008Z,3.80
2017-11-14T06:32:12.789Z,3.90
2017-11-14T06:34:40.509Z,3.90
2017-11-14T06:37:08.293Z,4.00
2017-11-14T06:39:35.974Z,4.00
2017-11-14T06:42:03.751Z,4.10
2017-11-14T06:44:31.379Z,4.20
2017-11-14T06:46:59.269Z,4.20
2017-11-14T06:49:26.932Z,4.30
2017-11-14T06:51:54.553Z,4.30
2017-11-14T06:54:22.328Z,4.30
2017-11-14T06:56:50.843Z,4.40
2017-11-14T06:59:20.223Z,4.50
2017-11-14T07:01:47.871Z,4.50
2017-11-14T07:04:15.763Z,4.50
2017-11-14T07:06:44.461Z,4.50
2017-11-14T07:09:12.238Z,4.50
2017-11-14T07:11:40.091Z,4.60
2017-11-14T07:14:07.877Z,4.60
2017-11-14T07:16:35.545Z,4.60
2017-11-14T07:19:04.831Z,4.60
2017-11-14T07:21:32.494Z,4.50
2017-11-14T07:24:00.333Z,4.50
2017-11-14T07:26:28.189Z,4.60
2017-11-14T07:28:55.963Z,4.60
2017-11-14T07:31:23.718Z,4.60
2017-11-14T07:33:52.379Z,4.80
2017-11-14T07:36:20.821Z,4.80
2017-11-14T07:38:50.182Z,4.90
2017-11-14T07:41:17.985Z,4.80
2017-11-14T07:43:45.646Z,4.90
2017-11-14T07:46:14.022Z,4.90
2017-11-14T07:48:41.758Z,4.90
2017-11-14T07:51:09.459Z,5.00
2017-11-14T07:53:37.970Z,5.30
2017-11-14T07:56:05.592Z,5.30
2017-11-14T07:58:34.812Z,5.30
2017-11-14T08:01:02.526Z,5.30
2017-11-14T08:03:30.931Z,5.10
2017-11-14T08:05:58.671Z,5.10
2017-11-14T08:08:26.359Z,5.30
2017-11-14T08:10:56.165Z,5.30
2017-11-14T08:13:23.896Z,5.30
2017-11-14T08:15:51.553Z,5.40
2017-11-14T08:18:19.146Z,5.50
2017-11-14T08:20:46.734Z,5.60
2017-11-14T08:23:14.394Z,5.60
2017-11-14T08:25:41.995Z,5.60
2017-11-14T08:28:10.409Z,5.60
2017-11-14T08:30:38.087Z,5.60
2017-11-14T08:33:05.743Z,5.60
2017-11-14T08:35:33.365Z,5.70
2017-11-14T08:38:01.003Z,5.80
2017-11-14T08:40:28.693Z,5.80
2017-11-14T08:42:57.151Z,5.80
2017-11-14T08:45:25.577Z,5.90
2017-11-14T08:47:53.219Z,5.90
2017-11-14T08:50:20.840Z,5.80
2017-11-14T08:52:48.456Z,5.90
2017-11-14T08:55:16.165Z,5.90
2017-11-14T08:57:44.699Z,5.90
2017-11-14T09:00:12.347Z,5.90
2017-11-14T09:02:40.124Z,6.00
2017-11-14T09:05:07.756Z,6.10
2017-11-14T09:07:36.161Z,6.30
2017-11-14T09:10:04.202Z,6.20
2017-11-14T09:12:31.925Z,6.30
2017-11-14T09:14:59.568Z,6.40
2017-11-14T09:17:27.317Z,6.40
2017-11-14T09:19:54.985Z,6.40
2017-11-14T09:22:22.667Z,6.50
2017-11-14T09:24:50.306Z,6.60
2017-11-14T09:27:17.942Z,6.70
2017-11-14T09:29:46.450Z,7.00
2017-11-14T09:32:15.067Z,7.00
2017-11-14T09:34:42.667Z,7.00
2017-11-14T09:37:10.314Z,7.00
2017-11-14T09:39:37.996Z,7.20
2017-11-14T09:42:05.630Z,7.30
2017-11-14T09:44:33.259Z,7.30
2017-11-14T09:47:00.925Z,7.30
2017-11-14T09:49:28.647Z,7.40
2017-11-14T09:51:56.299Z,7.10
2017-11-14T09:54:24.782Z,7.30
2017-11-14T09:56:53.265Z,7.20
2017-11-14T09:59:21.723Z,7.30
2017-11-14T10:01:49.404Z,7.30
2017-11-14T10:04:17.080Z,7.30
2017-11-14T10:06:44.720Z,7.40
2017-11-14T10:09:12.514Z,7.30
2017-11-14T10:11:40.182Z,7.30
2017-11-14T10:14:07.832Z,7.40
2017-11-14T10:16:35.505Z,7.60
2017-11-14T10:19:03.270Z,7.80
2017-11-14T10:21:30.915Z,7.90
2017-11-14T10:23:58.608Z,8.00
2017-11-14T10:26:26.316Z,8.00
2017-11-14T10:28:53.999Z,8.10
2017-11-14T10:31:22.494Z,8.30
2017-11-14T10:33:50.212Z,8.30
2017-11-14T10:36:17.832Z,8.30
2017-11-14T10:38:45.445Z,8.40
2017-11-14T10:41:13.083Z,8.30
2017-11-14T10:43:40.794Z,8.30
2017-11-14T10:46:09.251Z,8.30
2017-11-14T10:48:37.097Z,8.30
2017-11-14T10:51:05.471Z,8.20
2017-11-14T10:53:33.391Z,8.20
2017-11-14T10:56:01.084Z,8.30
2017-11-14T10:58:28.701Z,8.30
2017-11-14T11:00:57.309Z,8.50
2017-11-14T11:03:25.000Z,8.50
2017-11-14T11:05:52.734Z,8.50
2017-11-14T11:08:20.477Z,8.30
2017-11-14T11:10:48.097Z,8.30
2017-11-14T11:13:15.735Z,8.30
2017-11-14T11:15:43.805Z,8.20
2017-11-14T11:18:11.499Z,8.10
2017-11-14T11:20:39.156Z,8.00
2017-11-14T11:23:06.808Z,7.90
2017-11-14T11:25:34.556Z,7.80
2017-11-14T11:28:02.231Z,8.00
2017-11-14T11:30:29.938Z,8.10
2017-11-14T11:32:57.522Z,8.10
2017-11-14T11:35:25.475Z,8.20
2017-11-14T11:37:53.084Z,8.30
2017-11-14T11:40:21.497Z,8.30
2017-11-14T11:42:49.282Z,8.20
2017-11-14T11:45:16.936Z,8.30
2017-11-14T11:47:44.785Z,8.30
2017-11-14T11:50:13.161Z,8.60
2017-11-14T11:52:41.599Z,8.80
2017-11-14T11:55:09.211Z,8.90
2017-11-14T11:57:37.577Z,9.20
2017-11-14T12:00:06.164Z,9.20
2017-11-14T12:02:34.613Z,9.60
2017-11-14T12:05:02.280Z,9.60
2017-11-14T12:07:29.947Z,9.60
2017-11-14T12:09:57.580Z,9.50
2017-11-14T12:12:25.256Z,9.20
2017-11-14T12:14:52.943Z,9.50
2017-11-14T12:17:20.641Z,9.60
2017-11-14T12:19:48.431Z,9.70
2017-11-14T12:22:16.178Z,9.60
2017-11-14T12:24:43.827Z,9.50
2017-11-14T12:27:11.589Z,9.60
2017-11-14T12:29:40.006Z,9.60
2017-11-14T12:32:07.665Z,9.60
2017-11-14T12:34:35.346Z,9.30
2017-11-14T12:37:02.977Z,9.30
2017-11-14T12:39:30.620Z,9.40
2017-11-14T12:41:58.289Z,9.50
2017-11-14T12:44:25.908Z,9.60
2017-11-14T12:46:53.657Z,9.60
2017-11-14T12:49:21.330Z,9.60
2017-11-14T12:51:48.995Z,9.60
2017-11-14T12:54:16.623Z,9.50
2017-11-14T12:56:44.221Z,9.40
2017-11-14T12:59:12.626Z,9.60
2017-11-14T13:01:41.108Z,9.60
2017-11-14T13:04:08.766Z,9.60
2017-11-14T13:06:37.160Z,9.60
2017-11-14T13:09:04.865Z,9.60
2017-11-14T13:11:32.492Z,9.70
2017-11-14T13:14:00.166Z,9.60
2017-11-14T13:16:27.822Z,9.40
2017-11-14T13:18:55.517Z,9.40
2017-11-14T13:21:24.025Z,9.40
2017-11-14T13:23:51.673Z,9.50
2017-11-14T13:26:19.298Z,9.60
2017-11-14T13:28:46.965Z,9.60
2017-11-14T13:31:14.635Z,9.70
2017-11-14T13:33:42.275Z,9.80
2017-11-14T13:36:10.258Z,9.70
2017-11-14T13:38:37.915Z,9.70
2017-11-14T13:41:05.499Z,9.60
2017-11-14T13:43:33.232Z,9.60
2017-11-14T13:46:00.865Z,9.60
2017-11-14T13:48:29.170Z,9.70
2017-11-14T13:50:56.775Z,9.70
2017-11-14T13:53:24.361Z,9.60
2017-11-14T13:55:52.049Z,9.30
2017-11-14T13:58:19.667Z,9.40
2017-11-14T14:00:47.323Z,9.30
2017-11-14T14:03:15.707Z,9.40
2017-11-14T14:05:43.469Z,9.40
2017-11-14T14:08:11.102Z,9.50
2017-11-14T14:10:38.726Z,9.50
2017-11-14T14:13:06.294Z,9.40
2017-11-14T14:15:33.950Z,9.10
2017-11-14T14:18:01.567Z,9.00
2017-11-14T14:20:29.224Z,9.10
2017-11-14T14:22:56.822Z,9.10
2017-11-14T14:25:25.234Z,8.90
2017-11-14T14:27:52.899Z,8.80
2017-11-14T14:30:20.550Z,8.90
2017-11-14T14:32:48.177Z,8.80
2017-11-14T14:35:15.735Z,8.70
2017-11-14T14:37:43.401Z,8.70
2017-11-14T14:40:11.059Z,8.80
2017-11-14T14:42:38.685Z,8.90
2017-11-14T14:45:06.358Z,8.90
2017-11-14T14:47:33.967Z,8.90
2017-11-14T14:50:02.383Z,8.90
2017-11-14T14:52:29.983Z,8.90
2017-11-14T14:54:58.371Z,8.90
2017-11-14T14:57:25.977Z,8.90
2017-11-14T14:59:53.540Z,8.90
2017-11-14T15:02:21.207Z,8.90
2017-11-14T15:04:48.809Z,8.80
2017-11-14T15:07:16.427Z,8.60
2017-11-14T15:09:44.121Z,8.70
2017-11-14T15:12:11.729Z,8.70
2017-11-14T15:14:39.462Z,8.80
2017-11-14T15:17:07.873Z,9.00
2017-11-14T15:19:35.509Z,8.90
2017-11-14T15:22:03.123Z,9.00
2017-11-14T15:24:30.718Z,8.90
2017-11-14T15:26:58.319Z,8.70
2017-11-14T15:29:26.013Z,8.70
2017-11-14T15:31:53.647Z,8.60
2017-11-14T15:34:21.275Z,8.60
2017-11-14T15:36:49.643Z,8.50
2017-11-14T15:39:17.303Z,8.40
2017-11-14T15:41:45.680Z,8.40
2017-11-14T15:44:13.290Z,8.40
2017-11-14T15:46:40.923Z,8.50
2017-11-14T15:49:09.311Z,8.50
2017-11-14T15:51:36.941Z,8.50
2017-11-14T15:54:04.542Z,8.60
2017-11-14T15:56:32.196Z,8.70
2017-11-14T15:58:59.813Z,8.60
2017-11-14T16:01:27.455Z,8.50
2017-11-14T16:03:55.431Z,8.50
2017-11-14T16:06:23.054Z,8.50
2017-11-14T16:08:50.850Z,8.50
2017-11-14T16:11:19.408Z,8.60
2017-11-14T16:13:46.990Z,8.60
2017-11-14T16:16:14.695Z,8.40
2017-11-14T16:18:43.109Z,8.40
2017-11-14T16:21:10.785Z,8.30
2017-11-14T16:23:38.390Z,8.40
2017-11-14T16:26:06.067Z,8.40
2017-11-14T16:28:34.566Z,8.40
2017-11-14T16:31:02.268Z,8.40
2017-11-14T16:33:29.934Z,8.30
2017-11-14T16:35:58.315Z,8.20
2017-11-14T16:38:26.219Z,8.20
2017-11-14T16:40:54.638Z,8.20
2017-11-14T16:43:22.249Z,8.20
2017-11-14T16:45:50.086Z,8.20
2017-11-14T16:48:17.727Z,8.30
2017-11-14T16:50:45.402Z,8.20
2017-11-14T16:53:13.310Z,8.20
2017-11-14T16:55:41.731Z,8.30
2017-11-14T16:58:09.376Z,8.30
2017-11-14T17:00:37.809Z,8.50
2017-11-14T17:03:05.450Z,8.40
2017-11-14T17:05:33.100Z,8.50
2017-11-14T17:08:00.758Z,8.50
2017-11-14T17:10:28.428Z,8.50
2017-11-14T17:12:56.112Z,8.50
2017-11-14T17:15:23.738Z,8.50
2017-11-14T17:17:51.457Z,8.60
2017-11-14T17:20:19.056Z,8.60
2017-11-14T17:22:48.288Z,8.60
2017-11-14T17:25:15.910Z,8.60
2017-11-14T17:27:43.541Z,8.60
2017-11-14T17:30:11.276Z,8.60
2017-11-14T17:32:39.704Z,8.60
2017-11-14T17:35:07.352Z,8.70
2017-11-14T17:37:34.958Z,8.60
2017-11-14T17:40:02.689Z,8.70
2017-11-14T17:42:31.065Z,8.50
2017-11-14T17:44:58.820Z,8.50
2017-11-14T17:47:26.444Z,8.60
2017-11-14T17:49:54.051Z,8.60
2017-11-14T17:52:22.530Z,8.50
2017-11-14T17:54:50.147Z,8.50
2017-11-14T17:57:17.780Z,8.50
2017-11-14T17:59:46.118Z,8.50
2017-11-14T18:02:13.742Z,8.60
2017-11-14T18:04:41.356Z,8.50
2017-11-14T18:07:09.140Z,8.40
2017-11-14T18:09:36.787Z,8.40
2017-11-14T18:12:04.586Z,8.30
2017-11-14T18:14:32.295Z,8.30
2017-11-14T18:16:59.970Z,8.30
2017-11-14T18:19:28.441Z,8.40
2017-11-14T18:21:56.130Z,8.30
2017-11-14T18:24:23.822Z,8.40
2017-11-14T18:26:51.482Z,8.30
2017-11-14T18:29:19.126Z,8.10
2017-11-14T18:31:46.698Z,8.10
2017-11-14T18:34:14.441Z,8.20
2017-11-14T18:36:42.140Z,8.20
2017-11-14T18:39:09.770Z,8.10
2017-11-14T18:41:37.399Z,8.10
2017-11-14T18:44:06.426Z,8.10
2017-11-14T18:46:34.104Z,8.10
2017-11-14T18:49:01.790Z,8.20
2017-11-14T18:51:29.396Z,8.20
2017-11-14T18:53:57.036Z,8.30
2017-11-14T18:56:24.978Z,8.50
2017-11-14T18:58:52.953Z,8.50
2017-11-14T19:01:20.835Z,8.60
2017-11-14T19:03:48.610Z,8.60
2017-11-14T19:06:16.224Z,8.70
2017-11-14T19:08:43.890Z,8.60
2017-11-14T19:11:11.641Z,8.80
2017-11-14T19:13:39.300Z,8.90
2017-11-14T19:16:06.894Z,8.80
2017-11-14T19:18:34.638Z,8.80
2017-11-14T19:21:02.385Z,8.80
2017-11-14T19:23:30.146Z,8.50
2017-11-14T19:25:57.784Z,8.50
2017-11-14T19:28:25.345Z,8.30
2017-11-14T19:30:53.759Z,8.40
2017-11-14T19:33:21.449Z,8.40
2017-11-14T19:35:49.111Z,8.50
2017-11-14T19:38:16.934Z,8.40
2017-11-14T19:40:44.557Z,8.30
2017-11-14T19:43:12.272Z,8.30
2017-11-14T19:45:40.021Z,8.20
2017-11-14T19:48:07.780Z,8.20
2017-11-14T19:50:35.457Z,8.20
2017-11-14T19:53:03.095Z,8.20
2017-11-14T19:55:31.651Z,8.20
2017-11-14T19:57:59.405Z,8.20
2017-11-14T20:00:27.106Z,8.10
2017-11-14T20:02:55.480Z,8.10
2017-11-14T20:05:23.197Z,8.10
2017-11-14T20:07:50.905Z,8.20
2017-11-14T20:10:19.312Z,8.20
2017-11-14T20:12:47.011Z,8.20
2017-11-14T20:15:14.604Z,8.20
2017-11-14T20:17:43.167Z,8.40
2017-11-14T20:20:10.787Z,8.30
2017-11-14T20:22:38.420Z,8.30
2017-11-14T20:25:06.821Z,8.20
2017-11-14T20:27:34.465Z,8.20
2017-11-14T20:30:02.932Z,8.50
2017-11-14T20:32:30.554Z,8.50
2017-11-14T20:34:58.135Z,8.40
2017-11-14T20:37:25.817Z,8.40
2017-11-14T20:39:53.478Z,8.30
2017-11-14T20:42:21.876Z,8.50
2017-11-14T20:44:49.502Z,8.50
2017-11-14T20:47:17.145Z,8.40
2017-11-14T20:49:44.718Z,8.50
2017-11-14T20:52:12.370Z,8.40
2017-11-14T20:54:40.030Z,8.30
2017-11-14T20:57:07.714Z,8.30
2017-11-14T20:59:35.310Z,8.30
2017-11-14T21:02:03.002Z,8.40
2017-11-14T21:04:30.681Z,8.40
2017-11-14T21:06:58.376Z,8.30
2017-11-14T21:09:26.833Z,8.40
2017-11-14T21:11:54.517Z,8.40
2017-11-14T21:14:22.928Z,8.40
2017-11-14T21:16:50.760Z,8.30
2017-11-14T21:19:19.139Z,8.30
2017-11-14T21:21:47.509Z,8.40
2017-11-14T21:24:15.152Z,8.30
2017-11-14T21:26:42.835Z,8.40
2017-11-14T21:29:10.574Z,8.50
2017-11-14T21:31:38.155Z,8.40
2017-11-14T21:34:06.581Z,8.60
2017-11-14T21:36:34.189Z,8.60
2017-11-14T21:39:02.678Z,8.60
2017-11-14T21:41:30.468Z,8.60
2017-11-14T21:43:58.839Z,8.60
2017-11-14T21:46:27.914Z,8.60
2017-11-14T21:48:55.546Z,8.60
2017-11-14T21:51:23.553Z,8.60
2017-11-14T21:53:51.179Z,8.60
2017-11-14T21:56:19.757Z,8.60
2017-11-14T21:58:47.315Z,8.60
2017-11-14T22:01:14.960Z,8.50
2017-11-14T22:03:42.614Z,8.50
2017-11-14T22:06:10.254Z,8.50
2017-11-14T22:08:37.866Z,8.50
2017-11-14T22:11:05.521Z,8.40
2017-11-14T22:13:33.128Z,8.40
2017-11-14T22:16:01.894Z,8.40
2017-11-14T22:18:29.534Z,8.40
2017-11-14T22:20:57.208Z,8.40
2017-11-14T22:23:24.830Z,8.50
2017-11-14T22:25:52.410Z,8.50
2017-11-14T22:28:20.013Z,8.60
2017-11-14T22:30:47.770Z,8.60
2017-11-14T22:33:15.377Z,8.60
2017-11-14T22:35:42.999Z,8.50
2017-11-14T22:38:10.621Z,8.50
2017-11-14T22:40:38.303Z,8.60
2017-11-14T22:43:05.960Z,8.60
2017-11-14T22:45:33.629Z,8.60
2017-11-14T22:48:01.251Z,8.60
2017-11-14T22:50:28.875Z,8.60
2017-11-14T22:52:57.011Z,8.60
2017-11-14T22:55:24.705Z,8.60
2017-11-14T22:57:53.144Z,8.70
2017-11-14T23:00:26.519Z,8.70
2017-11-14T23:02:54.199Z,8.70
2017-11-14T23:05:21.892Z,8.70
2017-11-14T23:07:50.171Z,8.70
2017-11-14T23:10:18.132Z,8.70
2017-11-14T23:12:45.786Z,8.60
2017-11-14T23:15:13.444Z,8.70
2017-11-14T23:17:41.130Z,8.70
2017-11-14T23:20:08.768Z,8.70
2017-11-14T23:22:36.422Z,8.70
2017-11-14T23:25:04.143Z,8.70
2017-11-14T23:27:32.570Z,8.80
2017-11-14T23:30:00.245Z,8.80
2017-11-14T23:32:27.881Z,8.80
2017-11-14T23:34:55.575Z,8.80
2017-11-14T23:37:23.147Z,8.80
2017-11-14T23:39:51.682Z,8.80
2017-11-14T23:42:20.029Z,8.70
2017-11-14T23:44:47.630Z,8.70
2017-11-14T23:47:15.961Z,8.70
2017-11-14T23:49:44.342Z,8.60
2017-11-14T23:52:12.010Z,8.60
2017-11-14T23:54:39.638Z,8.60
2017-11-14T23:57:07.233Z,8.60
2017-11-14T23:59:35.665Z,8.60
